KSDY

Details ICAO KSDY (SDY)
Name Sidney Richland Muni
Region United States
Timezone America/Denver (UTC-7.0)
Plans Departing 1
Arriving 1
Stats Elevation 1,984 ft / 605 m (AMSL)
Location 47.707289° -104.191741°
Runways 2
Magnetic Variation 8.366° E
Sunrise 2017-12-17 14:41:45 UTC / 2017-12-17 07:41:45 Local
Sunset 2017-12-17 23:07:02 UTC / 2017-12-17 16:07:02 Local
Advertisement - Login to hide

Runways

ID Width Length Bearing (true) Bearing (mag) Surface Threshold Offset Overrun Length
01 100 ft / 30 m 5,703 ft / 1,738 m 23.66° 15.29° Asphalt 0 ft / 0 m 0 ft / 0 m
10 100 ft / 30 m 4,014 ft / 1,223 m 117.14° 108.77° Asphalt 0 ft / 0 m 0 ft / 0 m
19 100 ft / 30 m 5,703 ft / 1,738 m 203.66° 195.29° Asphalt 0 ft / 0 m 0 ft / 0 m
28 100 ft / 30 m 4,014 ft / 1,223 m 297.15° 288.78° Asphalt 0 ft / 0 m 0 ft / 0 m

Map

Weather


0- 5 10 15 20 25 30 35+ Temperature / ° C

Clouds and Precipitation
Forecast for 2017-12-17 12:00 UTC. Updated an hour ago

Ground ~20,000 ft ~40,000 ft Winds

METAR

KSDY 170756Z AUTO 21005KT 10SM CLR M07/M09 A3004 RMK AO2 SLP205 T10721094 FZRANO

TAF

TAF KSDY 170520Z 1706/1806 25005KT P6SM FEW250 FM171600 21010KT P6SM FEW110

Frequencies

Recorded 119.27 MHz AWOS 3
Unicom 122.80 MHz CTAF/UNICOM
Warning: Do not use this data for real-world aviation or navigation. No guarantee of current accuracy is given.